createdAt,value
2022-08-20T00:01:19.502Z,100.00
2022-08-20T00:03:50.059Z,100.00
2022-08-20T00:06:21.853Z,100.00
2022-08-20T00:08:49.205Z,100.00
2022-08-20T00:11:25.167Z,100.00
2022-08-20T00:13:59.313Z,100.00
2022-08-20T00:16:29.754Z,100.00
2022-08-20T00:19:00.662Z,100.00
2022-08-20T00:21:28.266Z,100.00
2022-08-20T00:23:59.265Z,100.00
2022-08-20T00:26:26.453Z,100.00
2022-08-20T00:28:54.224Z,100.00
2022-08-20T00:31:23.420Z,100.00
2022-08-20T00:33:51.770Z,100.00
2022-08-20T00:36:21.525Z,100.00
2022-08-20T00:38:48.875Z,100.00
2022-08-20T00:41:22.510Z,100.00
2022-08-20T00:44:11.154Z,100.00
2022-08-20T00:46:40.248Z,100.00
2022-08-20T00:49:22.135Z,100.00
2022-08-20T00:51:59.096Z,100.00
2022-08-20T00:54:38.128Z,100.00
2022-08-20T00:57:10.674Z,100.00
2022-08-20T00:59:41.762Z,100.00
2022-08-20T01:02:13.311Z,100.00
2022-08-20T01:04:43.741Z,100.00
2022-08-20T01:07:10.894Z,100.00
2022-08-20T01:09:58.467Z,100.00
2022-08-20T01:12:29.123Z,100.00
2022-08-20T01:14:59.383Z,100.00
2022-08-20T01:17:32.549Z,100.00
2022-08-20T01:20:02.402Z,100.00
2022-08-20T01:23:01.066Z,100.00
2022-08-20T01:25:53.265Z,100.00
2022-08-20T01:28:25.170Z,100.00
2022-08-20T01:30:52.987Z,100.00
2022-08-20T01:33:22.499Z,100.00
2022-08-20T01:35:53.065Z,100.00
2022-08-20T01:38:21.780Z,100.00
2022-08-20T01:41:16.303Z,100.00
2022-08-20T01:43:46.761Z,100.00
2022-08-20T01:46:17.820Z,100.00
2022-08-20T01:48:49.894Z,100.00
2022-08-20T01:51:20.306Z,100.00
2022-08-20T01:53:53.396Z,100.00
2022-08-20T01:56:28.363Z,100.00
2022-08-20T01:58:59.116Z,100.00
2022-08-20T02:01:39.035Z,100.00
2022-08-20T02:04:15.469Z,100.00
2022-08-20T02:06:56.280Z,100.00
2022-08-20T02:09:35.513Z,100.00
2022-08-20T02:12:06.505Z,100.00
2022-08-20T02:14:33.875Z,100.00
2022-08-20T02:17:01.468Z,100.00
2022-08-20T02:19:34.724Z,100.00
2022-08-20T02:22:08.986Z,100.00
2022-08-20T02:24:36.143Z,100.00
2022-08-20T02:27:03.198Z,100.00
2022-08-20T02:29:30.340Z,100.00
2022-08-20T02:32:25.029Z,100.00
2022-08-20T02:34:47.057Z,100.00
2022-08-20T02:37:18.528Z,100.00
2022-08-20T02:39:47.118Z,100.00
2022-08-20T02:42:16.987Z,100.00
2022-08-20T02:44:44.780Z,100.00
2022-08-20T02:47:11.915Z,100.00
2022-08-20T02:49:38.917Z,100.00
2022-08-20T02:52:06.224Z,100.00
2022-08-20T02:54:36.074Z,100.00
2022-08-20T02:57:04.263Z,100.00
2022-08-20T02:59:34.071Z,100.00
2022-08-20T03:02:01.367Z,100.00
2022-08-20T03:04:30.452Z,100.00
2022-08-20T03:06:58.916Z,100.00
2022-08-20T03:09:28.105Z,100.00
2022-08-20T03:11:55.163Z,100.00
2022-08-20T03:14:22.406Z,100.00
2022-08-20T03:16:50.160Z,100.00
2022-08-20T03:19:17.153Z,100.00
2022-08-20T03:21:47.756Z,100.00
2022-08-20T03:24:14.871Z,100.00
2022-08-20T03:26:43.598Z,100.00
2022-08-20T03:29:11.265Z,100.00
2022-08-20T03:31:40.703Z,100.00
2022-08-20T03:34:07.670Z,100.00
2022-08-20T03:36:35.027Z,100.00
2022-08-20T03:39:05.989Z,100.00
2022-08-20T03:41:35.341Z,100.00
2022-08-20T03:44:06.937Z,100.00
2022-08-20T03:46:34.505Z,100.00
2022-08-20T03:49:01.850Z,100.00
2022-08-20T03:51:30.739Z,100.00
2022-08-20T03:53:58.473Z,100.00
2022-08-20T03:56:26.094Z,100.00
2022-08-20T03:58:53.341Z,100.00
2022-08-20T04:01:44.192Z,100.00
2022-08-20T04:04:12.184Z,100.00
2022-08-20T04:06:42.425Z,100.00
2022-08-20T04:09:11.691Z,100.00
2022-08-20T04:11:42.394Z,100.00
2022-08-20T04:14:18.446Z,100.00
2022-08-20T04:16:46.402Z,100.00
2022-08-20T04:19:18.558Z,100.00
2022-08-20T04:21:48.686Z,100.00
2022-08-20T04:24:21.922Z,100.00
2022-08-20T04:26:58.902Z,100.00
2022-08-20T04:29:32.439Z,100.00
2022-08-20T04:32:00.913Z,100.00
2022-08-20T04:34:33.320Z,100.00
2022-08-20T04:37:00.301Z,100.00
2022-08-20T04:39:27.318Z,100.00
2022-08-20T04:41:54.570Z,100.00
2022-08-20T04:44:22.796Z,100.00
2022-08-20T04:46:52.390Z,100.00
2022-08-20T04:49:26.384Z,100.00
2022-08-20T04:51:54.811Z,100.00
2022-08-20T04:54:24.370Z,100.00
2022-08-20T04:56:51.507Z,100.00
2022-08-20T04:59:18.414Z,100.00
2022-08-20T05:01:45.820Z,100.00
2022-08-20T05:04:12.830Z,100.00
2022-08-20T05:06:45.404Z,100.00
2022-08-20T05:09:12.517Z,100.00
2022-08-20T05:11:41.791Z,100.00
2022-08-20T05:14:09.655Z,100.00
2022-08-20T05:16:40.907Z,100.00
2022-08-20T05:19:10.747Z,100.00
2022-08-20T05:21:39.031Z,100.00
2022-08-20T05:24:06.961Z,100.00
2022-08-20T05:26:34.430Z,100.00
2022-08-20T05:29:04.356Z,100.00
2022-08-20T05:31:33.727Z,100.00
2022-08-20T05:34:10.701Z,100.00
2022-08-20T05:36:45.535Z,100.00
2022-08-20T05:39:16.677Z,100.00
2022-08-20T05:41:43.850Z,100.00
2022-08-20T05:44:13.674Z,100.00
2022-08-20T05:46:43.882Z,100.00
2022-08-20T05:49:16.858Z,100.00
2022-08-20T05:51:44.266Z,100.00
2022-08-20T05:54:12.333Z,100.00
2022-08-20T05:56:39.590Z,100.00
2022-08-20T05:59:09.162Z,100.00
2022-08-20T06:01:38.837Z,100.00
2022-08-20T06:04:25.074Z,100.00
2022-08-20T06:07:04.046Z,100.00
2022-08-20T06:09:32.626Z,100.00
2022-08-20T06:12:03.222Z,100.00
2022-08-20T06:14:31.405Z,100.00
2022-08-20T06:17:13.262Z,100.00
2022-08-20T06:19:41.682Z,100.00
2022-08-20T06:22:18.585Z,100.00
2022-08-20T06:24:53.357Z,100.00
2022-08-20T06:27:21.288Z,100.00
2022-08-20T06:29:51.043Z,100.00
2022-08-20T06:32:19.846Z,100.00
2022-08-20T06:34:56.062Z,100.00
2022-08-20T06:37:31.766Z,100.00
2022-08-20T06:40:13.542Z,100.00
2022-08-20T06:42:47.762Z,99.25
2022-08-20T06:45:24.551Z,98.58
2022-08-20T06:47:58.276Z,92.76
2022-08-20T06:50:30.639Z,86.22
2022-08-20T06:53:00.127Z,85.24
2022-08-20T06:55:27.592Z,85.25
2022-08-20T06:58:03.855Z,84.68
2022-08-20T07:00:33.366Z,83.38
2022-08-20T07:03:02.297Z,83.75
2022-08-20T07:05:31.696Z,85.97
2022-08-20T07:07:59.498Z,90.61
2022-08-20T07:10:27.739Z,90.75
2022-08-20T07:12:54.902Z,91.33
2022-08-20T07:15:23.826Z,91.64
2022-08-20T07:17:55.490Z,91.28
2022-08-20T07:20:25.221Z,90.97
2022-08-20T07:22:55.466Z,89.45
2022-08-20T07:25:23.711Z,86.15
2022-08-20T07:27:53.284Z,85.32
2022-08-20T07:30:56.746Z,84.65
2022-08-20T07:33:29.955Z,84.60
2022-08-20T07:35:59.286Z,84.48
2022-08-20T07:38:30.143Z,87.44
2022-08-20T07:41:05.072Z,90.16
2022-08-20T07:43:34.770Z,91.32
2022-08-20T07:46:03.343Z,92.30
2022-08-20T07:48:32.113Z,91.57
2022-08-20T07:51:03.825Z,89.74
2022-08-20T07:53:35.830Z,88.87
2022-08-20T07:56:11.321Z,88.67
2022-08-20T07:58:42.134Z,85.40
2022-08-20T08:01:12.241Z,83.91
2022-08-20T08:03:49.647Z,78.80
2022-08-20T08:06:29.295Z,67.68
2022-08-20T08:09:02.706Z,59.09
2022-08-20T08:11:33.308Z,55.78
2022-08-20T08:14:00.404Z,54.05
2022-08-20T08:16:28.931Z,52.71
2022-08-20T08:19:02.125Z,50.73
2022-08-20T08:21:31.160Z,52.24
2022-08-20T08:23:58.730Z,52.75
2022-08-20T08:26:29.037Z,49.75
2022-08-20T08:28:58.248Z,47.83
2022-08-20T08:31:26.290Z,49.27
2022-08-20T08:33:53.930Z,49.54
2022-08-20T08:36:21.194Z,50.00
2022-08-20T08:38:48.973Z,50.22
2022-08-20T08:41:50.199Z,49.06
2022-08-20T08:44:28.900Z,49.78
2022-08-20T08:47:13.799Z,51.28
2022-08-20T08:49:40.913Z,52.37
2022-08-20T08:52:29.074Z,55.48
2022-08-20T08:55:00.154Z,56.97
2022-08-20T08:57:27.548Z,57.23
2022-08-20T09:00:05.019Z,58.63
2022-08-20T09:02:35.480Z,59.26
2022-08-20T09:05:13.478Z,61.03
2022-08-20T09:07:45.651Z,62.82
2022-08-20T09:10:15.210Z,65.17
2022-08-20T09:12:47.088Z,65.35
2022-08-20T09:15:15.650Z,66.79
2022-08-20T09:17:42.628Z,66.83
2022-08-20T09:20:10.633Z,67.59
2022-08-20T09:22:37.894Z,68.71
2022-08-20T09:25:05.487Z,66.92
2022-08-20T09:27:32.879Z,67.51
2022-08-20T09:30:00.313Z,65.74
2022-08-20T09:32:27.841Z,65.03
2022-08-20T09:34:56.729Z,63.57
2022-08-20T09:37:26.891Z,63.23
2022-08-20T09:39:54.134Z,60.88
2022-08-20T09:42:25.997Z,61.19
2022-08-20T09:44:53.553Z,61.61
2022-08-20T09:47:23.224Z,61.33
2022-08-20T09:49:50.446Z,61.06
2022-08-20T09:52:27.124Z,60.58
2022-08-20T09:55:06.219Z,60.41
2022-08-20T09:57:34.751Z,60.19
2022-08-20T10:00:09.954Z,59.28
2022-08-20T10:02:40.894Z,57.82
2022-08-20T10:05:09.309Z,57.98
2022-08-20T10:07:40.126Z,56.68
2022-08-20T10:10:09.799Z,56.45
2022-08-20T10:12:36.791Z,56.77
2022-08-20T10:15:04.727Z,56.41
2022-08-20T10:17:31.949Z,54.63
2022-08-20T10:20:03.686Z,55.12
2022-08-20T10:22:32.837Z,55.15
2022-08-20T10:25:03.516Z,56.71
2022-08-20T10:27:30.790Z,54.43
2022-08-20T10:29:57.893Z,53.52
2022-08-20T10:32:25.217Z,54.69
2022-08-20T10:34:52.273Z,54.15
2022-08-20T10:37:22.494Z,55.59
2022-08-20T10:39:49.744Z,55.07
2022-08-20T10:42:16.814Z,56.04
2022-08-20T10:44:43.932Z,56.41
2022-08-20T10:47:19.794Z,57.22
2022-08-20T10:49:48.383Z,57.84
2022-08-20T10:52:15.904Z,57.39
2022-08-20T10:54:46.460Z,57.23
2022-08-20T10:57:24.024Z,58.56
2022-08-20T10:59:53.329Z,59.28
2022-08-20T11:02:21.548Z,60.30
2022-08-20T11:04:49.109Z,60.79
2022-08-20T11:07:18.420Z,60.89
2022-08-20T11:09:47.531Z,61.83
2022-08-20T11:12:15.463Z,62.35
2022-08-20T11:14:42.667Z,62.15
2022-08-20T11:17:10.596Z,64.02
2022-08-20T11:19:45.576Z,64.24
2022-08-20T11:22:12.653Z,65.72
2022-08-20T11:24:42.565Z,66.22
2022-08-20T11:27:32.321Z,66.53
2022-08-20T11:30:02.168Z,66.51
2022-08-20T11:32:31.612Z,67.12
2022-08-20T11:34:58.629Z,66.65
2022-08-20T11:37:26.097Z,67.41
2022-08-20T11:39:53.399Z,66.76
2022-08-20T11:42:20.835Z,68.29
2022-08-20T11:44:47.831Z,67.90
2022-08-20T11:47:24.347Z,69.04
2022-08-20T11:50:11.002Z,70.20
2022-08-20T11:52:38.765Z,70.17
2022-08-20T11:55:08.131Z,71.07
2022-08-20T11:57:39.243Z,71.61
2022-08-20T12:00:14.613Z,73.65
2022-08-20T12:02:42.514Z,73.86
2022-08-20T12:05:11.485Z,74.40
2022-08-20T12:07:39.011Z,75.69
2022-08-20T12:10:07.556Z,75.99
2022-08-20T12:12:34.794Z,76.49
2022-08-20T12:15:01.780Z,76.96
2022-08-20T12:17:30.482Z,76.37
2022-08-20T12:20:02.666Z,75.49
2022-08-20T12:22:29.627Z,76.57
2022-08-20T12:24:57.072Z,76.15
2022-08-20T12:27:30.085Z,77.55
2022-08-20T12:29:59.666Z,78.62
2022-08-20T12:32:31.655Z,79.25
2022-08-20T12:34:59.156Z,78.96
2022-08-20T12:37:30.446Z,80.09
2022-08-20T12:39:59.857Z,80.92
2022-08-20T12:42:29.259Z,79.02
2022-08-20T12:44:57.372Z,78.80
2022-08-20T12:47:29.922Z,79.30
2022-08-20T12:50:07.340Z,78.62
2022-08-20T12:52:37.746Z,76.76
2022-08-20T12:55:06.945Z,77.45
2022-08-20T12:57:41.932Z,77.18
2022-08-20T13:00:16.830Z,76.73
2022-08-20T13:02:45.620Z,77.09
2022-08-20T13:05:13.800Z,78.24
2022-08-20T13:07:41.907Z,76.49
2022-08-20T13:10:18.347Z,76.63
2022-08-20T13:12:45.789Z,77.69
2022-08-20T13:15:16.064Z,78.24
2022-08-20T13:17:43.375Z,78.40
2022-08-20T13:20:15.363Z,78.95
2022-08-20T13:22:43.169Z,78.98
2022-08-20T13:25:14.011Z,78.33
2022-08-20T13:27:43.212Z,79.16
2022-08-20T13:30:15.989Z,78.65
2022-08-20T13:32:43.456Z,78.67
2022-08-20T13:35:11.840Z,79.21
2022-08-20T13:37:41.290Z,78.65
2022-08-20T13:40:09.700Z,78.88
2022-08-20T13:42:37.068Z,79.02
2022-08-20T13:45:06.034Z,79.34
2022-08-20T13:47:37.205Z,78.95
2022-08-20T13:50:15.266Z,78.21
2022-08-20T13:52:43.451Z,78.92
2022-08-20T13:55:13.554Z,79.08
2022-08-20T13:57:45.114Z,79.50
2022-08-20T14:00:20.339Z,78.96
2022-08-20T14:02:49.988Z,79.09
2022-08-20T14:05:17.806Z,78.61
2022-08-20T14:07:47.802Z,79.35
2022-08-20T14:10:21.968Z,79.04
2022-08-20T14:12:49.795Z,78.94
2022-08-20T14:15:17.863Z,78.55
2022-08-20T14:17:53.892Z,79.53
2022-08-20T14:20:24.455Z,78.19
2022-08-20T14:22:56.734Z,78.66
2022-08-20T14:25:25.919Z,79.48
2022-08-20T14:27:55.932Z,80.14
2022-08-20T14:30:27.512Z,80.04
2022-08-20T14:32:55.225Z,80.57
2022-08-20T14:35:23.214Z,80.40
2022-08-20T14:37:52.402Z,80.52
2022-08-20T14:40:26.456Z,81.27
2022-08-20T14:42:54.285Z,81.48
2022-08-20T14:45:22.868Z,82.10
2022-08-20T14:47:54.894Z,82.60
2022-08-20T14:50:29.307Z,84.25
2022-08-20T14:52:59.870Z,82.96
2022-08-20T14:55:30.474Z,83.64
2022-08-20T14:58:01.770Z,83.71
2022-08-20T15:00:30.957Z,85.17
2022-08-20T15:02:58.165Z,85.81
2022-08-20T15:05:26.040Z,87.35
2022-08-20T15:07:56.393Z,88.71
2022-08-20T15:10:27.338Z,89.66
2022-08-20T15:12:57.753Z,90.60
2022-08-20T15:15:25.450Z,91.16
2022-08-20T15:17:56.436Z,92.12
2022-08-20T15:20:29.507Z,92.88
2022-08-20T15:22:59.283Z,93.26
2022-08-20T15:25:37.071Z,93.62
2022-08-20T15:28:06.433Z,94.10
2022-08-20T15:30:33.844Z,94.05
2022-08-20T15:33:01.347Z,94.10
2022-08-20T15:35:29.192Z,94.34
2022-08-20T15:37:58.527Z,94.56
2022-08-20T15:40:28.986Z,94.70
2022-08-20T15:42:57.706Z,95.23
2022-08-20T15:45:27.784Z,95.43
2022-08-20T15:48:04.861Z,95.80
2022-08-20T15:50:48.262Z,96.36
2022-08-20T15:53:31.933Z,96.59
2022-08-20T15:56:21.551Z,97.07
2022-08-20T15:59:20.012Z,97.09
2022-08-20T16:02:14.981Z,97.58
2022-08-20T16:05:09.603Z,98.20
2022-08-20T16:08:01.144Z,98.85
2022-08-20T16:10:45.136Z,99.11
2022-08-20T16:13:25.897Z,98.60
2022-08-20T16:15:59.628Z,98.38
2022-08-20T16:18:34.895Z,99.28
2022-08-20T16:21:08.146Z,99.38
2022-08-20T16:23:38.520Z,99.51
2022-08-20T16:26:30.334Z,99.75
2022-08-20T16:29:11.301Z,100.00
2022-08-20T16:32:03.279Z,100.00
2022-08-20T16:34:37.712Z,100.00
2022-08-20T16:37:26.084Z,100.00
2022-08-20T16:40:27.290Z,100.00
2022-08-20T16:42:59.111Z,100.00
2022-08-20T16:45:28.686Z,100.00
2022-08-20T16:48:01.756Z,100.00
2022-08-20T16:50:34.874Z,100.00
2022-08-20T16:53:01.863Z,100.00
2022-08-20T16:55:29.186Z,100.00
2022-08-20T16:57:56.710Z,100.00
2022-08-20T17:00:44.918Z,100.00
2022-08-20T17:03:39.192Z,100.00
2022-08-20T17:06:17.218Z,100.00
2022-08-20T17:08:49.750Z,100.00
2022-08-20T17:11:29.159Z,100.00
2022-08-20T17:14:25.778Z,99.33
2022-08-20T17:16:53.164Z,98.85
2022-08-20T17:19:28.094Z,96.94
2022-08-20T17:21:56.855Z,96.53
2022-08-20T17:24:28.229Z,95.94
2022-08-20T17:27:00.112Z,96.11
2022-08-20T17:29:30.850Z,95.57
2022-08-20T17:32:07.794Z,95.16
2022-08-20T17:34:48.715Z,95.30
2022-08-20T17:37:23.353Z,96.06
2022-08-20T17:39:55.087Z,95.97
2022-08-20T17:42:26.102Z,96.54
2022-08-20T17:45:01.667Z,96.02
2022-08-20T17:47:32.576Z,95.87
2022-08-20T17:50:15.265Z,96.09
2022-08-20T17:52:57.587Z,95.94
2022-08-20T17:55:26.485Z,95.95
2022-08-20T17:58:02.850Z,95.89
2022-08-20T18:00:31.076Z,95.99
2022-08-20T18:03:11.584Z,96.01
2022-08-20T18:05:39.650Z,96.75
2022-08-20T18:08:19.622Z,96.58
2022-08-20T18:11:06.113Z,96.94
2022-08-20T18:14:07.796Z,96.80
2022-08-20T18:16:43.814Z,97.61
2022-08-20T18:19:26.766Z,97.05
2022-08-20T18:22:07.057Z,97.42
2022-08-20T18:24:56.898Z,97.41
2022-08-20T18:27:28.389Z,97.51
2022-08-20T18:30:00.789Z,97.73
2022-08-20T18:32:37.763Z,97.90
2022-08-20T18:35:38.808Z,98.41
2022-08-20T18:38:29.025Z,98.62
2022-08-20T18:41:55.314Z,98.73
2022-08-20T18:44:35.032Z,99.21
2022-08-20T18:47:07.506Z,100.00
2022-08-20T18:49:40.023Z,99.83
2022-08-20T18:52:26.421Z,100.00
2022-08-20T18:54:56.961Z,100.00
2022-08-20T18:57:30.534Z,100.00
2022-08-20T19:00:14.348Z,100.00
2022-08-20T19:03:15.156Z,100.00
2022-08-20T19:05:45.464Z,100.00
2022-08-20T19:08:17.728Z,100.00
2022-08-20T19:11:12.364Z,100.00
2022-08-20T19:14:08.985Z,100.00
2022-08-20T19:16:45.708Z,100.00
2022-08-20T19:19:20.314Z,100.00
2022-08-20T19:21:48.449Z,100.00
2022-08-20T19:24:25.312Z,100.00
2022-08-20T19:26:56.647Z,100.00
2022-08-20T19:29:30.624Z,100.00
2022-08-20T19:32:00.616Z,100.00
2022-08-20T19:34:31.628Z,100.00
2022-08-20T19:37:27.882Z,100.00
2022-08-20T19:39:52.167Z,100.00
2022-08-20T19:42:29.545Z,100.00
2022-08-20T19:45:37.473Z,100.00
2022-08-20T19:48:37.230Z,100.00
2022-08-20T19:51:27.732Z,100.00
2022-08-20T19:53:55.401Z,100.00
2022-08-20T19:56:25.537Z,100.00
2022-08-20T19:59:09.527Z,100.00
2022-08-20T20:01:37.205Z,100.00
2022-08-20T20:04:07.086Z,100.00
2022-08-20T20:06:43.400Z,100.00
2022-08-20T20:09:16.493Z,100.00
2022-08-20T20:11:53.122Z,100.00
2022-08-20T20:14:24.094Z,100.00
2022-08-20T20:16:52.617Z,100.00
2022-08-20T20:19:28.062Z,100.00
2022-08-20T20:22:19.920Z,100.00
2022-08-20T20:25:07.868Z,100.00
2022-08-20T20:27:36.839Z,100.00
2022-08-20T20:30:14.145Z,100.00
2022-08-20T20:32:50.050Z,100.00
2022-08-20T20:35:27.851Z,100.00
2022-08-20T20:38:04.866Z,100.00
2022-08-20T20:41:02.608Z,100.00
2022-08-20T20:43:34.048Z,100.00
2022-08-20T20:46:10.716Z,100.00
2022-08-20T20:48:51.399Z,100.00
2022-08-20T20:51:36.331Z,100.00
2022-08-20T20:54:21.115Z,100.00
2022-08-20T20:57:04.986Z,100.00
2022-08-20T20:59:35.601Z,100.00
2022-08-20T21:02:03.509Z,100.00
2022-08-20T21:04:30.894Z,100.00
2022-08-20T21:07:05.015Z,100.00
2022-08-20T21:09:33.607Z,100.00
2022-08-20T21:12:01.170Z,100.00
2022-08-20T21:14:28.245Z,100.00
2022-08-20T21:16:58.522Z,100.00
2022-08-20T21:19:26.012Z,100.00
2022-08-20T21:21:53.202Z,100.00
2022-08-20T21:24:22.498Z,100.00
2022-08-20T21:26:50.713Z,100.00
2022-08-20T21:29:32.156Z,100.00
2022-08-20T21:32:00.762Z,100.00
2022-08-20T21:34:28.101Z,100.00
2022-08-20T21:36:55.662Z,100.00
2022-08-20T21:39:25.134Z,100.00
2022-08-20T21:41:52.089Z,100.00
2022-08-20T21:44:29.762Z,100.00
2022-08-20T21:46:58.350Z,100.00
2022-08-20T21:49:27.371Z,100.00
2022-08-20T21:51:55.956Z,100.00
2022-08-20T21:54:24.434Z,100.00
2022-08-20T21:56:59.736Z,100.00
2022-08-20T21:59:29.025Z,100.00
2022-08-20T22:01:58.735Z,100.00
2022-08-20T22:04:25.984Z,100.00
2022-08-20T22:06:53.893Z,100.00
2022-08-20T22:09:21.239Z,100.00
2022-08-20T22:11:53.892Z,100.00
2022-08-20T22:14:22.742Z,100.00
2022-08-20T22:16:49.767Z,100.00
2022-08-20T22:19:16.836Z,100.00
2022-08-20T22:21:44.581Z,100.00
2022-08-20T22:24:13.696Z,100.00
2022-08-20T22:26:41.670Z,100.00
2022-08-20T22:29:10.771Z,100.00
2022-08-20T22:31:43.118Z,100.00
2022-08-20T22:34:13.404Z,100.00
2022-08-20T22:36:43.115Z,100.00
2022-08-20T22:39:10.800Z,100.00
2022-08-20T22:41:41.314Z,100.00
2022-08-20T22:44:08.536Z,100.00
2022-08-20T22:46:41.499Z,100.00
2022-08-20T22:49:13.041Z,100.00
2022-08-20T22:51:43.245Z,100.00
2022-08-20T22:54:16.662Z,100.00
2022-08-20T22:56:43.857Z,100.00
2022-08-20T22:59:10.878Z,100.00
2022-08-20T23:01:38.563Z,100.00
2022-08-20T23:04:27.436Z,100.00
2022-08-20T23:06:56.365Z,100.00
2022-08-20T23:09:24.404Z,100.00
2022-08-20T23:11:51.862Z,100.00
2022-08-20T23:14:19.363Z,100.00
2022-08-20T23:16:51.880Z,100.00
2022-08-20T23:19:21.827Z,100.00
2022-08-20T23:21:50.969Z,100.00
2022-08-20T23:24:19.252Z,100.00
2022-08-20T23:26:52.687Z,100.00
2022-08-20T23:29:25.273Z,100.00
2022-08-20T23:31:55.063Z,100.00
2022-08-20T23:34:22.571Z,100.00
2022-08-20T23:36:52.594Z,100.00
2022-08-20T23:39:20.617Z,100.00
2022-08-20T23:41:48.267Z,100.00
2022-08-20T23:44:25.737Z,100.00
2022-08-20T23:46:57.284Z,100.00
2022-08-20T23:49:24.956Z,100.00
2022-08-20T23:51:54.990Z,100.00
2022-08-20T23:54:22.268Z,100.00
2022-08-20T23:56:51.643Z,100.00
2022-08-20T23:59:24.633Z,100.00
